sensor_id;sensor_type;location;lat;lon;timestamp;P1;durP1;ratioP1;P2;durP2;ratioP2
38629;SDS011;24384;51.988;4.644;2023-06-19T00:01:25;8.70;;;2.58;;
38629;SDS011;24384;51.988;4.644;2023-06-19T00:03:50;2.95;;;2.00;;
38629;SDS011;24384;51.988;4.644;2023-06-19T00:06:16;6.25;;;1.85;;
38629;SDS011;24384;51.988;4.644;2023-06-19T00:08:41;5.95;;;2.30;;
38629;SDS011;24384;51.988;4.644;2023-06-19T00:11:07;4.13;;;1.70;;
38629;SDS011;24384;51.988;4.644;2023-06-19T00:13:32;5.03;;;1.85;;
38629;SDS011;24384;51.988;4.644;2023-06-19T00:15:58;8.60;;;1.92;;
38629;SDS011;24384;51.988;4.644;2023-06-19T00:18:25;3.58;;;2.00;;
38629;SDS011;24384;51.988;4.644;2023-06-19T00:20:51;5.22;;;2.33;;
38629;SDS011;24384;51.988;4.644;2023-06-19T00:23:17;3.30;;;1.75;;
38629;SDS011;24384;51.988;4.644;2023-06-19T00:25:43;4.05;;;1.73;;
38629;SDS011;24384;51.988;4.644;2023-06-19T00:28:09;1.67;;;1.40;;
38629;SDS011;24384;51.988;4.644;2023-06-19T00:30:36;2.88;;;1.48;;
38629;SDS011;24384;51.988;4.644;2023-06-19T00:33:04;7.10;;;1.45;;
38629;SDS011;24384;51.988;4.644;2023-06-19T00:35:29;6.07;;;1.80;;
38629;SDS011;24384;51.988;4.644;2023-06-19T00:37:55;2.25;;;1.60;;
38629;SDS011;24384;51.988;4.644;2023-06-19T00:40:27;4.82;;;1.80;;
38629;SDS011;24384;51.988;4.644;2023-06-19T00:42:54;10.80;;;2.20;;
38629;SDS011;24384;51.988;4.644;2023-06-19T00:45:19;6.15;;;3.08;;
38629;SDS011;24384;51.988;4.644;2023-06-19T00:47:45;7.88;;;2.35;;
38629;SDS011;24384;51.988;4.644;2023-06-19T00:50:10;3.85;;;2.30;;
38629;SDS011;24384;51.988;4.644;2023-06-19T00:52:37;4.85;;;2.67;;
38629;SDS011;24384;51.988;4.644;2023-06-19T00:55:03;7.13;;;2.83;;
38629;SDS011;24384;51.988;4.644;2023-06-19T00:57:29;3.58;;;2.70;;
38629;SDS011;24384;51.988;4.644;2023-06-19T00:59:56;8.93;;;2.75;;
38629;SDS011;24384;51.988;4.644;2023-06-19T01:02:22;8.13;;;2.83;;
38629;SDS011;24384;51.988;4.644;2023-06-19T01:04:49;4.20;;;3.10;;
38629;SDS011;24384;51.988;4.644;2023-06-19T01:07:16;3.58;;;3.00;;
38629;SDS011;24384;51.988;4.644;2023-06-19T01:09:55;8.43;;;4.05;;
38629;SDS011;24384;51.988;4.644;2023-06-19T01:12:28;8.68;;;3.90;;
38629;SDS011;24384;51.988;4.644;2023-06-19T01:14:58;4.90;;;4.40;;
38629;SDS011;24384;51.988;4.644;2023-06-19T01:17:29;5.45;;;3.85;;
38629;SDS011;24384;51.988;4.644;2023-06-19T01:19:55;5.78;;;3.75;;
38629;SDS011;24384;51.988;4.644;2023-06-19T01:22:22;7.68;;;4.53;;
38629;SDS011;24384;51.988;4.644;2023-06-19T01:24:51;6.72;;;4.15;;
38629;SDS011;24384;51.988;4.644;2023-06-19T01:27:17;6.15;;;4.28;;
38629;SDS011;24384;51.988;4.644;2023-06-19T01:29:43;7.50;;;5.10;;
38629;SDS011;24384;51.988;4.644;2023-06-19T01:32:13;5.95;;;5.07;;
38629;SDS011;24384;51.988;4.644;2023-06-19T01:34:43;5.88;;;4.85;;
38629;SDS011;24384;51.988;4.644;2023-06-19T01:37:09;7.45;;;4.78;;
38629;SDS011;24384;51.988;4.644;2023-06-19T01:39:35;5.45;;;4.72;;
38629;SDS011;24384;51.988;4.644;2023-06-19T01:42:02;9.68;;;6.13;;
38629;SDS011;24384;51.988;4.644;2023-06-19T01:44:29;8.38;;;5.30;;
38629;SDS011;24384;51.988;4.644;2023-06-19T01:46:55;9.55;;;6.00;;
38629;SDS011;24384;51.988;4.644;2023-06-19T01:49:20;8.52;;;5.35;;
38629;SDS011;24384;51.988;4.644;2023-06-19T01:51:46;7.10;;;6.35;;
38629;SDS011;24384;51.988;4.644;2023-06-19T01:54:11;5.75;;;5.18;;
38629;SDS011;24384;51.988;4.644;2023-06-19T01:56:36;9.02;;;5.55;;
38629;SDS011;24384;51.988;4.644;2023-06-19T01:59:02;11.43;;;5.97;;
38629;SDS011;24384;51.988;4.644;2023-06-19T02:01:27;9.18;;;6.03;;
38629;SDS011;24384;51.988;4.644;2023-06-19T02:03:52;7.40;;;5.20;;
38629;SDS011;24384;51.988;4.644;2023-06-19T02:06:18;7.22;;;4.85;;
38629;SDS011;24384;51.988;4.644;2023-06-19T02:08:43;10.18;;;5.22;;
38629;SDS011;24384;51.988;4.644;2023-06-19T02:11:08;8.23;;;5.10;;
38629;SDS011;24384;51.988;4.644;2023-06-19T02:13:34;9.05;;;5.45;;
38629;SDS011;24384;51.988;4.644;2023-06-19T02:15:59;9.18;;;5.68;;
38629;SDS011;24384;51.988;4.644;2023-06-19T02:18:24;10.32;;;6.10;;
38629;SDS011;24384;51.988;4.644;2023-06-19T02:20:49;6.95;;;6.28;;
38629;SDS011;24384;51.988;4.644;2023-06-19T02:23:15;9.75;;;7.40;;
38629;SDS011;24384;51.988;4.644;2023-06-19T02:25:40;11.05;;;8.68;;
38629;SDS011;24384;51.988;4.644;2023-06-19T02:28:05;12.52;;;8.68;;
38629;SDS011;24384;51.988;4.644;2023-06-19T02:30:30;12.93;;;9.52;;
38629;SDS011;24384;51.988;4.644;2023-06-19T02:32:56;15.02;;;11.10;;
38629;SDS011;24384;51.988;4.644;2023-06-19T02:35:21;21.60;;;12.80;;
38629;SDS011;24384;51.988;4.644;2023-06-19T02:37:46;18.50;;;13.60;;
38629;SDS011;24384;51.988;4.644;2023-06-19T02:40:12;18.90;;;14.85;;
38629;SDS011;24384;51.988;4.644;2023-06-19T02:42:38;23.02;;;16.63;;
38629;SDS011;24384;51.988;4.644;2023-06-19T02:45:03;21.90;;;16.88;;
38629;SDS011;24384;51.988;4.644;2023-06-19T02:47:29;22.50;;;17.65;;
38629;SDS011;24384;51.988;4.644;2023-06-19T02:50:01;25.05;;;17.65;;
38629;SDS011;24384;51.988;4.644;2023-06-19T02:52:29;26.95;;;17.77;;
38629;SDS011;24384;51.988;4.644;2023-06-19T02:54:54;26.58;;;17.27;;
38629;SDS011;24384;51.988;4.644;2023-06-19T02:57:20;17.60;;;14.23;;
38629;SDS011;24384;51.988;4.644;2023-06-19T02:59:45;18.10;;;15.50;;
38629;SDS011;24384;51.988;4.644;2023-06-19T03:02:10;18.15;;;14.45;;
38629;SDS011;24384;51.988;4.644;2023-06-19T03:04:36;18.65;;;14.82;;
38629;SDS011;24384;51.988;4.644;2023-06-19T03:07:02;18.52;;;15.18;;
38629;SDS011;24384;51.988;4.644;2023-06-19T03:09:27;18.17;;;14.48;;
38629;SDS011;24384;51.988;4.644;2023-06-19T03:11:53;19.65;;;14.15;;
38629;SDS011;24384;51.988;4.644;2023-06-19T03:14:18;15.30;;;13.18;;
38629;SDS011;24384;51.988;4.644;2023-06-19T03:16:43;15.63;;;12.82;;
38629;SDS011;24384;51.988;4.644;2023-06-19T03:19:09;17.23;;;12.43;;
38629;SDS011;24384;51.988;4.644;2023-06-19T03:21:34;19.60;;;12.98;;
38629;SDS011;24384;51.988;4.644;2023-06-19T03:24:00;16.52;;;13.90;;
38629;SDS011;24384;51.988;4.644;2023-06-19T03:26:26;17.48;;;13.63;;
38629;SDS011;24384;51.988;4.644;2023-06-19T03:28:51;16.52;;;13.50;;
38629;SDS011;24384;51.988;4.644;2023-06-19T03:31:16;13.55;;;11.05;;
38629;SDS011;24384;51.988;4.644;2023-06-19T03:33:42;18.23;;;10.32;;
38629;SDS011;24384;51.988;4.644;2023-06-19T03:36:07;15.98;;;9.23;;
38629;SDS011;24384;51.988;4.644;2023-06-19T03:38:32;26.63;;;9.98;;
38629;SDS011;24384;51.988;4.644;2023-06-19T03:40:58;12.00;;;8.75;;
38629;SDS011;24384;51.988;4.644;2023-06-19T03:43:23;15.23;;;8.93;;
38629;SDS011;24384;51.988;4.644;2023-06-19T03:45:49;9.80;;;7.53;;
38629;SDS011;24384;51.988;4.644;2023-06-19T03:48:15;12.75;;;9.68;;
38629;SDS011;24384;51.988;4.644;2023-06-19T03:50:41;13.65;;;7.88;;
38629;SDS011;24384;51.988;4.644;2023-06-19T03:53:06;9.15;;;8.18;;
38629;SDS011;24384;51.988;4.644;2023-06-19T03:55:32;13.77;;;8.35;;
38629;SDS011;24384;51.988;4.644;2023-06-19T03:57:57;8.68;;;6.50;;
38629;SDS011;24384;51.988;4.644;2023-06-19T04:00:22;9.00;;;6.75;;
38629;SDS011;24384;51.988;4.644;2023-06-19T04:02:47;9.13;;;5.97;;
38629;SDS011;24384;51.988;4.644;2023-06-19T04:05:13;7.68;;;5.95;;
38629;SDS011;24384;51.988;4.644;2023-06-19T04:07:40;8.70;;;5.80;;
38629;SDS011;24384;51.988;4.644;2023-06-19T04:10:05;7.25;;;5.95;;
38629;SDS011;24384;51.988;4.644;2023-06-19T04:12:31;12.77;;;7.00;;
38629;SDS011;24384;51.988;4.644;2023-06-19T04:14:56;7.65;;;6.28;;
38629;SDS011;24384;51.988;4.644;2023-06-19T04:17:22;12.75;;;7.65;;
38629;SDS011;24384;51.988;4.644;2023-06-19T04:19:47;10.32;;;7.10;;
38629;SDS011;24384;51.988;4.644;2023-06-19T04:22:13;9.77;;;7.38;;
38629;SDS011;24384;51.988;4.644;2023-06-19T04:24:38;11.55;;;7.07;;
38629;SDS011;24384;51.988;4.644;2023-06-19T04:27:05;8.82;;;7.05;;
38629;SDS011;24384;51.988;4.644;2023-06-19T04:29:33;9.75;;;6.45;;
38629;SDS011;24384;51.988;4.644;2023-06-19T04:31:58;8.30;;;6.07;;
38629;SDS011;24384;51.988;4.644;2023-06-19T04:34:24;8.35;;;5.88;;
38629;SDS011;24384;51.988;4.644;2023-06-19T04:36:50;7.28;;;5.85;;
38629;SDS011;24384;51.988;4.644;2023-06-19T04:39:18;9.95;;;6.53;;
38629;SDS011;24384;51.988;4.644;2023-06-19T04:41:43;7.82;;;6.18;;
38629;SDS011;24384;51.988;4.644;2023-06-19T04:44:09;10.15;;;6.15;;
38629;SDS011;24384;51.988;4.644;2023-06-19T04:46:36;11.05;;;6.60;;
38629;SDS011;24384;51.988;4.644;2023-06-19T04:49:02;8.60;;;7.03;;
38629;SDS011;24384;51.988;4.644;2023-06-19T04:51:30;9.65;;;7.82;;
38629;SDS011;24384;51.988;4.644;2023-06-19T04:53:57;12.27;;;7.85;;
38629;SDS011;24384;51.988;4.644;2023-06-19T04:56:22;9.40;;;8.13;;
38629;SDS011;24384;51.988;4.644;2023-06-19T04:58:48;10.63;;;7.88;;
38629;SDS011;24384;51.988;4.644;2023-06-19T05:01:14;8.90;;;7.57;;
38629;SDS011;24384;51.988;4.644;2023-06-19T05:03:40;19.35;;;8.02;;
38629;SDS011;24384;51.988;4.644;2023-06-19T05:06:06;9.57;;;7.72;;
38629;SDS011;24384;51.988;4.644;2023-06-19T05:08:31;10.52;;;8.27;;
38629;SDS011;24384;51.988;4.644;2023-06-19T05:10:56;11.77;;;8.15;;
38629;SDS011;24384;51.988;4.644;2023-06-19T05:13:22;12.93;;;7.90;;
38629;SDS011;24384;51.988;4.644;2023-06-19T05:15:48;14.93;;;8.57;;
38629;SDS011;24384;51.988;4.644;2023-06-19T05:18:13;12.88;;;9.15;;
38629;SDS011;24384;51.988;4.644;2023-06-19T05:20:39;12.80;;;9.45;;
38629;SDS011;24384;51.988;4.644;2023-06-19T05:23:04;14.63;;;10.88;;
38629;SDS011;24384;51.988;4.644;2023-06-19T05:25:29;15.70;;;10.63;;
38629;SDS011;24384;51.988;4.644;2023-06-19T05:27:55;16.10;;;10.77;;
38629;SDS011;24384;51.988;4.644;2023-06-19T05:30:20;14.88;;;10.32;;
38629;SDS011;24384;51.988;4.644;2023-06-19T05:32:46;17.63;;;10.98;;
38629;SDS011;24384;51.988;4.644;2023-06-19T05:35:11;16.15;;;10.43;;
38629;SDS011;24384;51.988;4.644;2023-06-19T05:37:36;15.05;;;10.20;;
38629;SDS011;24384;51.988;4.644;2023-06-19T05:40:03;17.95;;;11.38;;
38629;SDS011;24384;51.988;4.644;2023-06-19T05:42:30;13.38;;;10.00;;
38629;SDS011;24384;51.988;4.644;2023-06-19T05:44:56;20.45;;;11.88;;
38629;SDS011;24384;51.988;4.644;2023-06-19T05:47:21;16.13;;;12.00;;
38629;SDS011;24384;51.988;4.644;2023-06-19T05:49:49;23.70;;;12.50;;
38629;SDS011;24384;51.988;4.644;2023-06-19T05:52:14;17.63;;;12.80;;
38629;SDS011;24384;51.988;4.644;2023-06-19T05:54:39;18.02;;;11.45;;
38629;SDS011;24384;51.988;4.644;2023-06-19T05:57:05;16.63;;;11.15;;
38629;SDS011;24384;51.988;4.644;2023-06-19T05:59:31;16.95;;;10.18;;
38629;SDS011;24384;51.988;4.644;2023-06-19T06:01:56;12.77;;;10.43;;
38629;SDS011;24384;51.988;4.644;2023-06-19T06:04:21;17.05;;;11.80;;
38629;SDS011;24384;51.988;4.644;2023-06-19T06:06:47;13.88;;;11.45;;
38629;SDS011;24384;51.988;4.644;2023-06-19T06:09:12;20.02;;;12.88;;
38629;SDS011;24384;51.988;4.644;2023-06-19T06:11:38;18.10;;;12.50;;
38629;SDS011;24384;51.988;4.644;2023-06-19T06:14:03;16.80;;;11.93;;
38629;SDS011;24384;51.988;4.644;2023-06-19T06:16:28;19.58;;;12.30;;
38629;SDS011;24384;51.988;4.644;2023-06-19T06:18:56;19.70;;;13.85;;
38629;SDS011;24384;51.988;4.644;2023-06-19T06:21:21;19.50;;;12.70;;
38629;SDS011;24384;51.988;4.644;2023-06-19T06:23:47;19.65;;;13.90;;
38629;SDS011;24384;51.988;4.644;2023-06-19T06:26:14;23.23;;;13.60;;
38629;SDS011;24384;51.988;4.644;2023-06-19T06:28:39;23.20;;;14.63;;
38629;SDS011;24384;51.988;4.644;2023-06-19T06:31:05;17.98;;;14.20;;
38629;SDS011;24384;51.988;4.644;2023-06-19T06:33:30;19.05;;;13.60;;
38629;SDS011;24384;51.988;4.644;2023-06-19T06:35:57;21.05;;;13.23;;
38629;SDS011;24384;51.988;4.644;2023-06-19T06:38:23;24.80;;;12.98;;
38629;SDS011;24384;51.988;4.644;2023-06-19T06:40:48;17.40;;;12.32;;
38629;SDS011;24384;51.988;4.644;2023-06-19T06:43:13;18.95;;;12.38;;
38629;SDS011;24384;51.988;4.644;2023-06-19T06:45:39;22.17;;;13.07;;
38629;SDS011;24384;51.988;4.644;2023-06-19T06:48:06;19.25;;;11.20;;
38629;SDS011;24384;51.988;4.644;2023-06-19T06:50:32;17.95;;;11.50;;
38629;SDS011;24384;51.988;4.644;2023-06-19T06:52:57;16.60;;;11.68;;
38629;SDS011;24384;51.988;4.644;2023-06-19T06:55:22;20.00;;;11.35;;
38629;SDS011;24384;51.988;4.644;2023-06-19T06:57:48;15.93;;;9.93;;
38629;SDS011;24384;51.988;4.644;2023-06-19T07:00:13;17.02;;;11.20;;
38629;SDS011;24384;51.988;4.644;2023-06-19T07:02:38;19.85;;;10.05;;
38629;SDS011;24384;51.988;4.644;2023-06-19T07:05:10;19.83;;;11.93;;
38629;SDS011;24384;51.988;4.644;2023-06-19T07:07:36;18.27;;;10.23;;
38629;SDS011;24384;51.988;4.644;2023-06-19T07:10:01;11.82;;;8.77;;
38629;SDS011;24384;51.988;4.644;2023-06-19T07:12:27;10.80;;;8.35;;
38629;SDS011;24384;51.988;4.644;2023-06-19T07:14:55;13.68;;;8.93;;
38629;SDS011;24384;51.988;4.644;2023-06-19T07:17:21;16.55;;;10.02;;
38629;SDS011;24384;51.988;4.644;2023-06-19T07:19:48;22.75;;;10.10;;
38629;SDS011;24384;51.988;4.644;2023-06-19T07:22:13;14.32;;;8.48;;
38629;SDS011;24384;51.988;4.644;2023-06-19T07:24:42;14.27;;;9.45;;
38629;SDS011;24384;51.988;4.644;2023-06-19T07:27:07;16.45;;;8.88;;
38629;SDS011;24384;51.988;4.644;2023-06-19T07:29:33;18.90;;;10.00;;
38629;SDS011;24384;51.988;4.644;2023-06-19T07:31:58;15.02;;;9.15;;
38629;SDS011;24384;51.988;4.644;2023-06-19T07:34:26;12.75;;;8.98;;
38629;SDS011;24384;51.988;4.644;2023-06-19T07:36:51;17.30;;;10.57;;
38629;SDS011;24384;51.988;4.644;2023-06-19T07:39:16;20.10;;;12.60;;
38629;SDS011;24384;51.988;4.644;2023-06-19T07:41:41;13.85;;;11.10;;
38629;SDS011;24384;51.988;4.644;2023-06-19T07:44:06;30.30;;;13.85;;
38629;SDS011;24384;51.988;4.644;2023-06-19T07:46:32;24.50;;;19.70;;
38629;SDS011;24384;51.988;4.644;2023-06-19T07:48:57;28.10;;;21.33;;
38629;SDS011;24384;51.988;4.644;2023-06-19T07:51:23;27.75;;;21.92;;
38629;SDS011;24384;51.988;4.644;2023-06-19T07:53:48;30.23;;;21.17;;
38629;SDS011;24384;51.988;4.644;2023-06-19T07:56:13;25.85;;;20.17;;
38629;SDS011;24384;51.988;4.644;2023-06-19T07:58:38;29.13;;;20.08;;
38629;SDS011;24384;51.988;4.644;2023-06-19T08:01:04;23.67;;;19.35;;
38629;SDS011;24384;51.988;4.644;2023-06-19T08:03:29;23.25;;;18.30;;
38629;SDS011;24384;51.988;4.644;2023-06-19T08:05:55;26.00;;;17.77;;
38629;SDS011;24384;51.988;4.644;2023-06-19T08:08:21;24.88;;;18.33;;
38629;SDS011;24384;51.988;4.644;2023-06-19T08:10:46;22.75;;;18.17;;
38629;SDS011;24384;51.988;4.644;2023-06-19T08:13:11;24.73;;;18.70;;
38629;SDS011;24384;51.988;4.644;2023-06-19T08:15:37;23.40;;;19.05;;
38629;SDS011;24384;51.988;4.644;2023-06-19T08:18:02;31.13;;;20.58;;
38629;SDS011;24384;51.988;4.644;2023-06-19T08:20:27;32.95;;;20.95;;
38629;SDS011;24384;51.988;4.644;2023-06-19T08:22:53;26.90;;;16.67;;
38629;SDS011;24384;51.988;4.644;2023-06-19T08:25:18;22.45;;;17.38;;
38629;SDS011;24384;51.988;4.644;2023-06-19T08:27:44;23.35;;;14.10;;
38629;SDS011;24384;51.988;4.644;2023-06-19T08:30:10;18.40;;;12.65;;
38629;SDS011;24384;51.988;4.644;2023-06-19T08:32:36;21.70;;;12.35;;
38629;SDS011;24384;51.988;4.644;2023-06-19T08:35:01;21.50;;;14.30;;
38629;SDS011;24384;51.988;4.644;2023-06-19T08:37:26;20.77;;;14.48;;
38629;SDS011;24384;51.988;4.644;2023-06-19T08:39:52;25.33;;;17.65;;
38629;SDS011;24384;51.988;4.644;2023-06-19T08:42:17;25.80;;;17.67;;
38629;SDS011;24384;51.988;4.644;2023-06-19T08:44:42;24.48;;;19.98;;
38629;SDS011;24384;51.988;4.644;2023-06-19T08:47:08;24.80;;;20.00;;
38629;SDS011;24384;51.988;4.644;2023-06-19T08:49:35;27.63;;;20.20;;
38629;SDS011;24384;51.988;4.644;2023-06-19T08:52:04;27.17;;;19.17;;
38629;SDS011;24384;51.988;4.644;2023-06-19T08:54:29;29.13;;;19.70;;
38629;SDS011;24384;51.988;4.644;2023-06-19T08:56:55;25.08;;;19.38;;
38629;SDS011;24384;51.988;4.644;2023-06-19T08:59:20;34.58;;;20.77;;
38629;SDS011;24384;51.988;4.644;2023-06-19T09:01:46;23.65;;;20.05;;
38629;SDS011;24384;51.988;4.644;2023-06-19T09:04:23;29.23;;;18.80;;
38629;SDS011;24384;51.988;4.644;2023-06-19T09:06:55;26.13;;;18.92;;
38629;SDS011;24384;51.988;4.644;2023-06-19T09:09:23;25.42;;;18.42;;
38629;SDS011;24384;51.988;4.644;2023-06-19T09:12:05;23.38;;;18.35;;
38629;SDS011;24384;51.988;4.644;2023-06-19T09:14:33;20.65;;;17.77;;
38629;SDS011;24384;51.988;4.644;2023-06-19T09:17:01;21.17;;;18.52;;
38629;SDS011;24384;51.988;4.644;2023-06-19T09:19:30;20.95;;;17.92;;
38629;SDS011;24384;51.988;4.644;2023-06-19T09:22:00;27.63;;;18.58;;
38629;SDS011;24384;51.988;4.644;2023-06-19T09:24:32;23.70;;;19.15;;
38629;SDS011;24384;51.988;4.644;2023-06-19T09:27:11;27.90;;;17.85;;
38629;SDS011;24384;51.988;4.644;2023-06-19T09:29:42;21.05;;;17.70;;
38629;SDS011;24384;51.988;4.644;2023-06-19T09:32:21;23.17;;;18.63;;
38629;SDS011;24384;51.988;4.644;2023-06-19T09:34:48;23.42;;;18.90;;
38629;SDS011;24384;51.988;4.644;2023-06-19T09:37:16;28.90;;;19.80;;
38629;SDS011;24384;51.988;4.644;2023-06-19T09:39:50;26.17;;;21.70;;
38629;SDS011;24384;51.988;4.644;2023-06-19T09:42:18;24.58;;;19.92;;
38629;SDS011;24384;51.988;4.644;2023-06-19T09:44:49;25.83;;;18.33;;
38629;SDS011;24384;51.988;4.644;2023-06-19T09:47:21;23.73;;;18.70;;
38629;SDS011;24384;51.988;4.644;2023-06-19T09:49:49;27.70;;;20.77;;
38629;SDS011;24384;51.988;4.644;2023-06-19T09:52:19;22.33;;;19.33;;
38629;SDS011;24384;51.988;4.644;2023-06-19T09:54:47;25.20;;;19.73;;
38629;SDS011;24384;51.988;4.644;2023-06-19T09:57:14;23.67;;;19.50;;
38629;SDS011;24384;51.988;4.644;2023-06-19T09:59:39;25.33;;;20.92;;
38629;SDS011;24384;51.988;4.644;2023-06-19T10:02:06;21.98;;;19.55;;
38629;SDS011;24384;51.988;4.644;2023-06-19T10:04:43;22.50;;;19.15;;
38629;SDS011;24384;51.988;4.644;2023-06-19T10:07:18;23.27;;;17.45;;
38629;SDS011;24384;51.988;4.644;2023-06-19T10:10:46;23.38;;;18.25;;
38629;SDS011;24384;51.988;4.644;2023-06-19T10:12:49;21.27;;;16.40;;
38629;SDS011;24384;51.988;4.644;2023-06-19T10:20:31;18.77;;;15.40;;
38629;SDS011;24384;51.988;4.644;2023-06-19T10:25:31;16.63;;;14.82;;
38629;SDS011;24384;51.988;4.644;2023-06-19T10:27:58;18.30;;;13.65;;
38629;SDS011;24384;51.988;4.644;2023-06-19T10:30:24;15.98;;;13.38;;
38629;SDS011;24384;51.988;4.644;2023-06-19T10:32:50;16.90;;;14.18;;
38629;SDS011;24384;51.988;4.644;2023-06-19T10:35:16;17.83;;;15.13;;
38629;SDS011;24384;51.988;4.644;2023-06-19T10:37:42;17.40;;;14.73;;
38629;SDS011;24384;51.988;4.644;2023-06-19T10:40:09;17.17;;;13.43;;
38629;SDS011;24384;51.988;4.644;2023-06-19T10:42:38;15.77;;;10.50;;
38629;SDS011;24384;51.988;4.644;2023-06-19T10:45:06;15.95;;;12.52;;
38629;SDS011;24384;51.988;4.644;2023-06-19T10:47:34;21.60;;;12.98;;
38629;SDS011;24384;51.988;4.644;2023-06-19T10:49:59;14.68;;;13.18;;
38629;SDS011;24384;51.988;4.644;2023-06-19T10:52:25;22.98;;;12.27;;
38629;SDS011;24384;51.988;4.644;2023-06-19T10:54:53;17.08;;;11.93;;
38629;SDS011;24384;51.988;4.644;2023-06-19T10:57:25;14.95;;;12.98;;
38629;SDS011;24384;51.988;4.644;2023-06-19T10:59:52;14.52;;;12.63;;
38629;SDS011;24384;51.988;4.644;2023-06-19T11:02:18;15.65;;;13.88;;
38629;SDS011;24384;51.988;4.644;2023-06-19T11:04:43;16.40;;;13.43;;
38629;SDS011;24384;51.988;4.644;2023-06-19T11:07:09;20.52;;;14.38;;
38629;SDS011;24384;51.988;4.644;2023-06-19T11:09:34;17.90;;;12.52;;
38629;SDS011;24384;51.988;4.644;2023-06-19T11:12:01;19.30;;;13.20;;
38629;SDS011;24384;51.988;4.644;2023-06-19T11:14:28;17.30;;;14.00;;
38629;SDS011;24384;51.988;4.644;2023-06-19T11:16:55;14.82;;;12.82;;
38629;SDS011;24384;51.988;4.644;2023-06-19T11:19:20;16.73;;;13.60;;
38629;SDS011;24384;51.988;4.644;2023-06-19T11:21:48;15.02;;;12.05;;
38629;SDS011;24384;51.988;4.644;2023-06-19T11:24:15;15.27;;;12.68;;
38629;SDS011;24384;51.988;4.644;2023-06-19T11:26:43;15.55;;;11.73;;
38629;SDS011;24384;51.988;4.644;2023-06-19T11:29:18;16.58;;;11.68;;
38629;SDS011;24384;51.988;4.644;2023-06-19T11:31:45;12.65;;;9.73;;
38629;SDS011;24384;51.988;4.644;2023-06-19T11:34:12;15.60;;;11.70;;
38629;SDS011;24384;51.988;4.644;2023-06-19T11:36:38;12.60;;;11.25;;
38629;SDS011;24384;51.988;4.644;2023-06-19T11:39:04;14.73;;;9.40;;
38629;SDS011;24384;51.988;4.644;2023-06-19T11:41:35;13.45;;;10.32;;
38629;SDS011;24384;51.988;4.644;2023-06-19T11:44:02;10.93;;;9.00;;
38629;SDS011;24384;51.988;4.644;2023-06-19T11:46:29;13.88;;;10.00;;
38629;SDS011;24384;51.988;4.644;2023-06-19T11:49:06;14.68;;;11.82;;
38629;SDS011;24384;51.988;4.644;2023-06-19T11:51:38;16.98;;;11.85;;
38629;SDS011;24384;51.988;4.644;2023-06-19T11:54:06;14.60;;;12.55;;
38629;SDS011;24384;51.988;4.644;2023-06-19T11:56:33;16.15;;;12.13;;
38629;SDS011;24384;51.988;4.644;2023-06-19T11:58:59;17.00;;;11.80;;
38629;SDS011;24384;51.988;4.644;2023-06-19T12:01:25;13.50;;;12.10;;
38629;SDS011;24384;51.988;4.644;2023-06-19T12:03:51;17.17;;;12.57;;
38629;SDS011;24384;51.988;4.644;2023-06-19T12:06:16;20.00;;;12.23;;
38629;SDS011;24384;51.988;4.644;2023-06-19T12:08:43;14.73;;;11.25;;
38629;SDS011;24384;51.988;4.644;2023-06-19T12:11:08;16.67;;;12.48;;
38629;SDS011;24384;51.988;4.644;2023-06-19T12:13:35;14.40;;;12.45;;
38629;SDS011;24384;51.988;4.644;2023-06-19T12:16:00;15.13;;;11.65;;
38629;SDS011;24384;51.988;4.644;2023-06-19T12:18:26;14.80;;;12.40;;
38629;SDS011;24384;51.988;4.644;2023-06-19T12:20:51;15.50;;;13.30;;
38629;SDS011;24384;51.988;4.644;2023-06-19T12:23:16;13.73;;;12.32;;
38629;SDS011;24384;51.988;4.644;2023-06-19T12:25:41;12.75;;;10.80;;
38629;SDS011;24384;51.988;4.644;2023-06-19T12:28:07;12.82;;;11.38;;
38629;SDS011;24384;51.988;4.644;2023-06-19T12:30:33;14.27;;;12.05;;
38629;SDS011;24384;51.988;4.644;2023-06-19T12:32:59;15.32;;;10.75;;
38629;SDS011;24384;51.988;4.644;2023-06-19T12:35:24;13.07;;;10.50;;
38629;SDS011;24384;51.988;4.644;2023-06-19T12:37:51;13.93;;;10.95;;
38629;SDS011;24384;51.988;4.644;2023-06-19T12:40:16;11.30;;;9.82;;
38629;SDS011;24384;51.988;4.644;2023-06-19T12:42:42;15.95;;;8.85;;
38629;SDS011;24384;51.988;4.644;2023-06-19T12:45:08;14.15;;;9.50;;
38629;SDS011;24384;51.988;4.644;2023-06-19T12:47:34;12.02;;;9.43;;
38629;SDS011;24384;51.988;4.644;2023-06-19T12:50:00;10.85;;;8.77;;
38629;SDS011;24384;51.988;4.644;2023-06-19T12:52:25;10.68;;;8.57;;
38629;SDS011;24384;51.988;4.644;2023-06-19T12:54:51;9.38;;;8.00;;
38629;SDS011;24384;51.988;4.644;2023-06-19T12:57:17;15.48;;;10.82;;
38629;SDS011;24384;51.988;4.644;2023-06-19T12:59:42;14.10;;;10.60;;
38629;SDS011;24384;51.988;4.644;2023-06-19T13:02:07;13.73;;;8.45;;
38629;SDS011;24384;51.988;4.644;2023-06-19T13:04:32;17.25;;;9.23;;
38629;SDS011;24384;51.988;4.644;2023-06-19T13:06:58;13.13;;;8.35;;
38629;SDS011;24384;51.988;4.644;2023-06-19T13:09:23;13.23;;;8.77;;
38629;SDS011;24384;51.988;4.644;2023-06-19T13:11:49;8.90;;;7.70;;
38629;SDS011;24384;51.988;4.644;2023-06-19T13:14:14;9.30;;;7.53;;
38629;SDS011;24384;51.988;4.644;2023-06-19T13:16:40;9.90;;;8.32;;
38629;SDS011;24384;51.988;4.644;2023-06-19T13:19:05;10.55;;;8.18;;
38629;SDS011;24384;51.988;4.644;2023-06-19T13:21:31;11.57;;;8.18;;
38629;SDS011;24384;51.988;4.644;2023-06-19T13:23:56;12.55;;;8.07;;
38629;SDS011;24384;51.988;4.644;2023-06-19T13:26:22;11.88;;;8.02;;
38629;SDS011;24384;51.988;4.644;2023-06-19T13:28:48;9.90;;;8.02;;
38629;SDS011;24384;51.988;4.644;2023-06-19T13:31:13;12.88;;;8.23;;
38629;SDS011;24384;51.988;4.644;2023-06-19T13:33:38;13.52;;;8.90;;
38629;SDS011;24384;51.988;4.644;2023-06-19T13:36:04;11.27;;;7.30;;
38629;SDS011;24384;51.988;4.644;2023-06-19T13:38:29;11.45;;;6.97;;
38629;SDS011;24384;51.988;4.644;2023-06-19T13:40:55;9.15;;;8.00;;
38629;SDS011;24384;51.988;4.644;2023-06-19T13:43:21;8.32;;;6.22;;
38629;SDS011;24384;51.988;4.644;2023-06-19T13:45:48;11.48;;;7.50;;
38629;SDS011;24384;51.988;4.644;2023-06-19T13:48:13;11.98;;;7.85;;
38629;SDS011;24384;51.988;4.644;2023-06-19T13:50:39;10.98;;;8.02;;
38629;SDS011;24384;51.988;4.644;2023-06-19T13:53:04;9.85;;;7.53;;
38629;SDS011;24384;51.988;4.644;2023-06-19T13:55:29;8.30;;;7.30;;
38629;SDS011;24384;51.988;4.644;2023-06-19T13:57:54;13.93;;;6.40;;
38629;SDS011;24384;51.988;4.644;2023-06-19T14:00:20;10.05;;;7.00;;
38629;SDS011;24384;51.988;4.644;2023-06-19T14:02:45;10.77;;;6.85;;
38629;SDS011;24384;51.988;4.644;2023-06-19T14:05:11;11.18;;;6.65;;
38629;SDS011;24384;51.988;4.644;2023-06-19T14:07:39;16.65;;;8.05;;
38629;SDS011;24384;51.988;4.644;2023-06-19T14:10:05;10.43;;;7.50;;
38629;SDS011;24384;51.988;4.644;2023-06-19T14:12:30;15.15;;;6.75;;
38629;SDS011;24384;51.988;4.644;2023-06-19T14:14:56;14.15;;;6.93;;
38629;SDS011;24384;51.988;4.644;2023-06-19T14:17:22;12.75;;;7.30;;
38629;SDS011;24384;51.988;4.644;2023-06-19T14:19:47;13.45;;;7.78;;
38629;SDS011;24384;51.988;4.644;2023-06-19T14:22:13;12.20;;;7.45;;
38629;SDS011;24384;51.988;4.644;2023-06-19T14:24:38;10.23;;;7.05;;
38629;SDS011;24384;51.988;4.644;2023-06-19T14:27:03;10.50;;;7.85;;
38629;SDS011;24384;51.988;4.644;2023-06-19T14:29:29;10.52;;;7.07;;
38629;SDS011;24384;51.988;4.644;2023-06-19T14:31:54;9.38;;;7.03;;
38629;SDS011;24384;51.988;4.644;2023-06-19T14:34:20;7.68;;;6.45;;